Time;durP1;ratioP1;P1;durP2;ratioP2;P2;SDS_P1;SDS_P2;PMS_P1;PMS_P2;Temp;Humidity;BMP_temperature;BMP_pressure;BME280_temperature;BME280_humidity;BME280_pressure;Samples;Min_cycle;Max_cycle;Signal;HPM_P1;HPM_P2
2022/08/15 00:01:23;;;;;;;36.07;21.23;;;;;;;17.47;100.00;98101.63;4975455;28;20175;-85
2022/08/15 00:03:52;;;;;;;37.37;21.77;;;;;;;19.12;100.00;98364.63;4974602;28;20164;-85
2022/08/15 00:06:28;;;;;;;31.23;20.70;;;;;;;17.90;100.00;98142.41;4957190;28;20688;-85
2022/08/15 00:08:56;;;;;;;33.80;22.33;;;;;;;18.57;100.00;98264.13;4957170;28;20181;-85
2022/08/15 00:11:31;;;;;;;35.00;22.37;;;;;;;19.17;100.00;98370.59;4973098;28;20206;-86
2022/08/15 00:14:00;;;;;;;34.40;22.20;;;;;;;17.84;100.00;98145.84;4974434;28;20170;-85
2022/08/15 00:16:32;;;;;;;34.63;21.17;;;;;;;18.79;100.00;98296.47;4957532;28;20624;-84
2022/08/15 00:18:58;;;;;;;34.00;22.20;;;;;;;19.07;100.00;98374.09;4974431;28;20152;-85
2022/08/15 00:21:24;;;;;;;33.73;22.03;;;;;;;16.26;100.00;97922.28;4974449;28;20194;-85
2022/08/15 00:23:50;;;;;;;31.53;20.87;;;;;;;18.76;100.00;98303.34;4973094;28;20191;-84
2022/08/15 00:26:15;;;;;;;33.40;20.50;;;;;;;18.86;100.00;98315.25;4974097;28;20152;-84
2022/08/15 00:28:41;;;;;;;33.67;20.37;;;;;;;17.13;100.00;98028.47;4973101;28;20179;-84
2022/08/15 00:31:10;;;;;;;29.97;19.23;;;;;;;18.17;100.00;98211.41;4974192;28;20641;-85
2022/08/15 00:33:35;;;;;;;30.13;19.80;;;;;;;17.13;100.00;98019.94;4974251;28;20160;-85
2022/08/15 00:36:01;;;;;;;29.93;19.33;;;;;;;17.68;100.00;98131.44;4974273;28;20671;-84
2022/08/15 00:38:28;;;;;;;31.60;20.47;;;;;;;17.80;100.00;98146.72;4973982;28;20572;-85
2022/08/15 00:44:08;;;;;;;30.10;20.30;;;;;;;17.62;100.00;98154.50;4952422;29;20277;-84
2022/08/15 00:46:34;;;;;;;30.07;19.67;;;;;;;18.14;100.00;98276.31;4952660;29;20601;-85
2022/08/15 00:48:59;;;;;;;33.57;20.77;;;;;;;17.60;100.00;98163.88;4952474;29;20197;-85
2022/08/15 00:51:28;;;;;;;32.43;20.83;;;;;;;18.86;100.00;98387.06;4952437;29;20173;-85
2022/08/15 00:54:34;;;;;;;33.30;21.20;;;;;;;18.86;100.00;98376.78;4951972;28;20712;-84
2022/08/15 00:57:10;;;;;;;36.37;21.50;;;;;;;18.63;100.00;98355.53;4951940;29;20847;-84
2022/08/15 00:59:40;;;;;;;33.17;21.30;;;;;;;18.75;100.00;98350.34;4936195;29;20191;-84
2022/08/15 01:02:10;;;;;;;34.40;21.00;;;;;;;17.60;100.00;98169.00;4952014;29;20688;-84
2022/08/15 01:04:37;;;;;;;31.20;20.33;;;;;;;17.42;100.00;98151.13;4951848;29;20175;-84
2022/08/15 01:07:03;;;;;;;31.60;20.20;;;;;;;18.56;100.00;98352.16;4952185;29;20579;-83
2022/08/15 01:09:30;;;;;;;30.47;20.70;;;;;;;18.36;100.00;98322.31;4952184;29;20175;-84
2022/08/15 01:12:04;;;;;;;37.03;22.23;;;;;;;18.74;100.00;98397.34;4952403;29;20665;-84
2022/08/15 01:14:32;;;;;;;33.17;20.67;;;;;;;16.46;100.00;98012.44;4960411;29;20212;-84
2022/08/15 01:16:58;;;;;;;30.47;19.40;;;;;;;16.86;100.00;98115.47;4956991;29;20181;-85
2022/08/15 01:19:27;;;;;;;30.03;20.33;;;;;;;18.55;100.00;98390.59;4965570;28;20203;-84
2022/08/15 01:22:34;;;;;;;31.80;20.57;;;;;;;16.88;100.00;98119.72;4977029;28;20164;-84
2022/08/15 01:25:10;;;;;;;30.17;20.87;;;;;;;18.26;100.00;98389.00;4935741;29;20283;-84
2022/08/15 01:27:44;;;;;;;30.23;20.50;;;;;;;18.34;100.00;98385.53;4951749;29;20696;-84
2022/08/15 01:30:16;;;;;;;35.70;21.20;;;;;;;18.46;100.00;98388.06;4951704;29;20321;-85
2022/08/15 01:32:43;;;;;;;32.37;21.10;;;;;;;18.43;100.00;98370.97;4951469;29;20199;-84
2022/08/15 01:35:09;;;;;;;35.03;21.47;;;;;;;17.73;100.00;98273.03;4935681;29;20675;-85
2022/08/15 01:37:37;;;;;;;33.27;21.07;;;;;;;17.63;100.00;98253.47;4951460;29;20176;-87
2022/08/15 01:40:14;;;;;;;28.53;19.53;;;;;;;18.49;100.00;98388.94;4951367;28;20374;-85
2022/08/15 01:42:45;;;;;;;30.50;20.03;;;;;;;16.30;100.00;98041.41;4951531;29;20227;-85
2022/08/15 01:45:18;;;;;;;29.37;18.50;;;;;;;18.43;100.00;98411.16;4951330;29;20176;-84
2022/08/15 01:47:52;;;;;;;30.80;20.20;;;;;;;18.47;100.00;98410.25;4951724;29;20164;-84
2022/08/15 01:50:39;;;;;;;30.47;19.47;;;;;;;15.25;100.00;97872.13;4954042;29;20176;-84
2022/08/15 01:53:10;;;;;;;29.90;19.20;;;;;;;18.48;100.00;98406.88;4962635;29;20171;-84
2022/08/15 01:56:19;;;;;;;29.07;19.97;;;;;;;18.41;100.00;98402.59;4951512;29;20228;-85
2022/08/15 01:58:45;;;;;;;31.30;19.73;;;;;;;18.32;100.00;98374.47;4951942;29;20196;-85
2022/08/15 02:01:15;;;;;;;25.70;18.20;;;;;;;18.47;100.00;98405.13;4962981;28;20202;-85
2022/08/15 02:03:42;;;;;;;27.67;18.20;;;;;;;18.49;100.00;98406.00;4979508;28;20184;-87
2022/08/15 02:06:30;;;;;;;28.27;18.20;;;;;;;18.33;100.00;98389.81;4998973;28;20182;-86
2022/08/15 02:08:56;;;;;;;28.57;17.97;;;;;;;16.86;100.00;98141.91;4991358;28;20175;-84
2022/08/15 02:11:25;;;;;;;30.57;19.23;;;;;;;18.20;100.00;98360.81;4985704;28;20160;-85
2022/08/15 02:13:56;;;;;;;26.33;18.03;;;;;;;17.40;100.00;98232.16;4997738;28;20164;-85
2022/08/15 02:16:30;;;;;;;26.80;17.73;;;;;;;18.18;100.00;98385.56;4999237;28;20210;-83
2022/08/15 02:18:57;;;;;;;25.70;16.83;;;;;;;15.94;100.00;98007.41;4981728;28;20156;-84
2022/08/15 02:21:23;;;;;;;26.60;17.30;;;;;;;18.41;100.00;98408.56;4981131;28;20160;-85
2022/08/15 02:23:49;;;;;;;29.30;18.07;;;;;;;17.56;100.00;98287.59;4979997;28;20164;-85
2022/08/15 02:26:15;;;;;;;31.70;20.47;;;;;;;18.39;100.00;98417.13;4962885;28;20175;-86
2022/08/15 02:28:42;;;;;;;30.43;18.43;;;;;;;17.96;100.00;98342.97;4978978;28;20176;-85
2022/08/15 02:31:18;;;;;;;26.47;18.37;;;;;;;18.40;100.00;98421.41;4962275;28;20266;-84
2022/08/15 02:33:49;;;;;;;25.93;17.60;;;;;;;18.03;100.00;98361.72;4978906;28;20260;-85
2022/08/15 02:36:16;;;;;;;35.93;18.43;;;;;;;18.28;100.00;98428.28;4977023;28;20191;-84
2022/08/15 02:38:43;;;;;;;27.77;17.87;;;;;;;17.81;100.00;98350.69;4976442;28;20624;-84
2022/08/15 02:41:09;;;;;;;28.23;18.33;;;;;;;18.25;100.00;98418.03;4975196;28;20231;-84
2022/08/15 02:43:40;;;;;;;27.60;18.60;;;;;;;18.10;100.00;98401.84;4976471;28;20238;-85
2022/08/15 02:46:06;;;;;;;30.20;18.80;;;;;;;18.18;100.00;98406.06;4976042;28;20156;-84
2022/08/15 02:48:32;;;;;;;31.47;19.30;;;;;;;17.45;100.00;98281.59;4976191;28;20222;-86
2022/08/15 02:50:58;;;;;;;27.30;18.37;;;;;;;17.35;100.00;98238.97;4976563;28;20179;-85
2022/08/15 02:53:23;;;;;;;28.83;18.90;;;;;;;16.22;100.00;98068.66;4976317;28;20247;-85
2022/08/15 02:55:49;;;;;;;28.37;18.27;;;;;;;16.71;100.00;98136.78;4976184;28;20271;-85
2022/08/15 02:58:16;;;;;;;28.60;18.27;;;;;;;14.56;100.00;97821.91;4975922;28;20611;-85
2022/08/15 03:00:44;;;;;;;27.90;18.47;;;;;;;18.11;100.00;98401.81;4975785;28;20219;-85
2022/08/15 03:03:14;;;;;;;28.30;19.10;;;;;;;18.01;100.00;98401.84;4976298;28;20160;-85
2022/08/15 03:05:43;;;;;;;34.77;19.07;;;;;;;16.13;100.00;98058.44;4975579;28;20300;-85
2022/08/15 03:08:09;;;;;;;30.00;18.97;;;;;;;18.01;100.00;98407.84;4975479;28;20621;-85
2022/08/15 03:10:37;;;;;;;31.00;19.10;;;;;;;16.66;100.00;98161.50;4974245;28;20180;-85
2022/08/15 03:13:06;;;;;;;27.80;18.00;;;;;;;16.87;100.00;98198.97;4975370;28;20278;-87
2022/08/15 03:15:48;;;;;;;29.27;19.53;;;;;;;17.43;100.00;98271.38;4975305;28;20191;-87
2022/08/15 03:18:14;;;;;;;33.40;19.40;;;;;;;18.14;100.00;98396.72;4975129;28;20167;-86
2022/08/15 03:20:41;;;;;;;30.70;19.77;;;;;;;16.87;100.00;98184.47;4975547;28;20199;-88
2022/08/15 03:23:08;;;;;;;30.40;20.23;;;;;;;16.12;100.00;98066.97;4975853;28;20171;-86
2022/08/15 03:25:46;;;;;;;35.27;20.33;;;;;;;18.14;100.00;98396.72;4974056;28;20230;-85
2022/08/15 03:28:12;;;;;;;36.27;20.80;;;;;;;16.67;100.00;98155.56;4974391;28;20171;-86
2022/08/15 03:30:38;;;;;;;36.73;20.67;;;;;;;17.74;100.00;98336.19;4975458;28;20164;-85
2022/08/15 03:33:05;;;;;;;32.47;20.30;;;;;;;17.51;100.00;98279.03;4983628;28;20184;-85
2022/08/15 03:35:36;;;;;;;34.27;19.50;;;;;;;18.24;100.00;98400.94;4984071;28;20199;-84
2022/08/15 03:38:02;;;;;;;33.13;20.50;;;;;;;17.13;100.00;98217.72;4986126;28;20176;-85
2022/08/15 03:40:28;;;;;;;35.70;19.97;;;;;;;18.32;100.00;98407.75;4984676;28;20762;-85
2022/08/15 03:43:15;;;;;;;31.47;20.30;;;;;;;18.29;100.00;98404.34;4987881;28;20317;-85
2022/08/15 03:45:50;;;;;;;33.03;19.93;;;;;;;18.40;100.00;98409.44;4988330;28;20160;-85
2022/08/15 03:48:17;;;;;;;33.23;19.70;;;;;;;16.93;100.00;98169.16;4990288;28;20202;-85
2022/08/15 03:50:43;;;;;;;32.20;20.87;;;;;;;16.35;100.00;98062.69;4991265;28;20172;-86
2022/08/15 03:53:09;;;;;;;35.97;19.43;;;;;;;15.34;100.00;97895.09;4988380;28;20597;-86
2022/08/15 03:55:40;;;;;;;37.07;20.70;;;;;;;18.50;100.00;98407.72;4988439;28;20192;-86
2022/08/15 03:58:07;;;;;;;33.00;19.77;;;;;;;18.57;100.00;98412.81;4989988;28;20307;-85
2022/08/15 04:00:42;;;;;;;32.90;19.50;;;;;;;18.61;100.00;98419.66;4990278;28;20178;-85
2022/08/15 04:03:19;;;;;;;28.20;18.63;;;;;;;18.64;100.00;98417.06;4991824;28;20163;-84
2022/08/15 04:05:55;;;;;;;27.47;18.07;;;;;;;18.63;100.00;98419.63;4980805;28;20183;-87
2022/08/15 04:08:22;;;;;;;25.90;18.07;;;;;;;18.56;100.00;98392.31;4972524;28;20200;-87
2022/08/15 04:10:50;;;;;;;25.03;17.70;;;;;;;18.11;100.00;98307.06;4985299;28;20203;-87
2022/08/15 04:13:18;;;;;;;26.20;17.03;;;;;;;18.73;100.00;98421.31;4984826;28;20186;-85
2022/08/15 04:15:45;;;;;;;25.80;17.40;;;;;;;18.72;100.00;98429.84;4990059;28;20318;-85
2022/08/15 04:18:10;;;;;;;26.47;17.97;;;;;;;17.76;100.00;98252.56;5004520;28;20184;-87
2022/08/15 04:20:37;;;;;;;28.53;18.60;;;;;;;17.89;100.00;98284.94;4985641;28;20192;-84
2022/08/15 04:23:04;;;;;;;26.73;17.77;;;;;;;18.27;100.00;98328.34;4999130;28;20188;-85
2022/08/15 04:25:32;;;;;;;24.47;16.93;;;;;;;17.90;100.00;98286.66;5005597;28;20159;-86
2022/08/15 04:28:03;;;;;;;29.10;17.63;;;;;;;18.96;100.00;98437.41;5013382;28;20171;-85
2022/08/15 04:30:34;;;;;;;24.03;16.83;;;;;;;17.68;100.00;98241.50;4968561;28;20204;-86
2022/08/15 04:33:11;;;;;;;24.97;17.30;;;;;;;18.77;100.00;98443.50;4983532;28;20195;-85
2022/08/15 04:35:38;;;;;;;25.03;16.97;;;;;;;17.44;100.00;98218.50;4989619;28;20299;-86
2022/08/15 04:38:04;;;;;;;26.03;17.50;;;;;;;17.88;100.00;98302.88;4986423;28;20228;-86
2022/08/15 04:40:30;;;;;;;26.47;16.77;;;;;;;18.09;100.00;98321.59;4990152;28;20238;-85
2022/08/15 04:42:58;;;;;;;26.93;17.43;;;;;;;18.54;100.00;98438.47;4994559;28;20168;-85
2022/08/15 04:45:25;;;;;;;24.27;17.03;;;;;;;18.85;100.00;98437.47;4996665;28;20207;-84
2022/08/15 04:47:51;;;;;;;23.30;17.07;;;;;;;16.08;100.00;97986.13;4996155;28;20272;-85
2022/08/15 04:50:19;;;;;;;22.67;16.37;;;;;;;18.96;100.00;98447.69;4970162;28;20247;-86
2022/08/15 04:52:47;;;;;;;23.20;16.90;;;;;;;18.52;100.00;98319.72;4968100;28;20272;-86
2022/08/15 04:55:14;;;;;;;24.10;16.77;;;;;;;19.20;100.00;98444.97;4978437;28;20660;-85
2022/08/15 04:57:40;;;;;;;23.10;15.83;;;;;;;19.06;100.00;98467.31;4980880;28;20179;-86
2022/08/15 05:00:10;;;;;;;21.27;14.67;;;;;;;18.87;100.00;98367.38;4986482;28;20168;-85
2022/08/15 05:02:37;;;;;;;21.17;14.73;;;;;;;17.03;100.00;98098.41;4997649;28;20227;-86
2022/08/15 05:05:06;;;;;;;23.23;15.70;;;;;;;19.45;100.00;98429.47;5005819;28;20230;-85
2022/08/15 05:07:32;;;;;;;22.90;15.83;;;;;;;17.17;100.00;97999.44;5006673;28;20179;-85
2022/08/15 05:09:59;;;;;;;20.57;14.30;;;;;;;15.29;100.00;97678.41;4991120;28;20183;-86
2022/08/15 05:12:25;;;;;;;19.00;14.23;;;;;;;20.28;100.00;98450.16;4985655;28;20172;-85
2022/08/15 05:14:53;;;;;;;22.13;15.50;;;;;;;19.31;100.00;98211.41;4985723;28;20193;-87
2022/08/15 05:17:18;;;;;;;18.43;13.93;;;;;;;19.60;100.00;98265.03;4985605;28;20176;-88
2022/08/15 05:19:47;;;;;;;17.97;13.17;;;;;;;19.59;100.00;98211.97;4963195;28;20243;-88
2022/08/15 05:22:16;;;;;;;18.30;13.47;;;;;;;20.33;100.00;98307.00;4976414;28;20207;-84
2022/08/15 05:24:42;;;;;;;20.87;13.70;;;;;;;20.33;100.00;98331.84;4975079;28;20694;-85
2022/08/15 05:27:08;;;;;;;18.23;13.23;;;;;;;18.45;100.00;98014.75;4964568;28;20172;-85
2022/08/15 05:29:33;;;;;;;20.83;13.73;;;;;;;17.80;100.00;97912.94;4967353;28;20176;-86
2022/08/15 05:32:09;;;;;;;16.70;13.27;;;;;;;20.35;100.00;98340.41;4966737;28;20203;-84
2022/08/15 05:34:35;;;;;;;22.80;14.10;;;;;;;18.10;100.00;97931.38;4982128;28;20754;-83
2022/08/15 05:37:02;;;;;;;18.67;13.70;;;;;;;18.82;100.00;98068.22;4983490;28;20175;-84
2022/08/15 05:39:30;;;;;;;18.37;13.93;;;;;;;21.37;100.00;98446.25;4984824;28;20176;-85
2022/08/15 05:42:05;;;;;;;19.23;14.00;;;;;;;20.54;100.00;98322.19;4980652;28;20708;-86
2022/08/15 05:45:02;;;;;;;23.23;16.50;;;;;;;17.60;100.00;97805.63;4988189;28;20235;-85
2022/08/15 05:47:33;;;;;;;20.17;16.17;;;;;;;21.56;100.00;98470.03;4961054;28;20531;-85
2022/08/15 05:50:06;;;;;;;17.00;13.57;;;;;;;17.93;100.00;97883.78;4982618;28;20203;-83
2022/08/15 05:52:35;;;;;;;20.57;13.83;;;;;;;21.44;100.00;98467.63;4962944;28;20569;-85
2022/08/15 05:55:35;;;;;;;17.67;13.63;;;;;;;17.45;100.00;97800.59;4977028;28;20192;-85
2022/08/15 05:58:28;;;;;;;20.60;12.77;;;;;;;17.93;100.00;97851.34;4971846;28;20199;-85
2022/08/15 06:01:16;;;;;;;17.37;12.80;;;;;;;22.02;100.00;98480.47;4880165;29;20202;-84
2022/08/15 06:03:49;;;;;;;18.53;13.43;;;;;;;18.39;100.00;97861.06;4884194;29;20191;-86
2022/08/15 06:06:21;;;;;;;16.77;13.07;;;;;;;18.56;100.00;97949.75;4896897;29;20213;-87
2022/08/15 06:08:53;;;;;;;19.03;13.97;;;;;;;21.01;100.00;98256.31;4890328;29;20203;-85
2022/08/15 06:11:29;;;;;;;21.33;13.20;;;;;;;20.91;100.00;98211.84;4888417;29;20312;-85
2022/08/15 06:14:40;;;;;;;19.10;12.50;;;;;;;22.57;100.00;98470.00;4886388;29;20286;-87
2022/08/15 06:17:54;;;;;;;15.37;10.97;;;;;;;22.39;100.00;98463.47;4867639;29;20212;-86
2022/08/15 06:20:25;;;;;;;14.30;9.77;;;;;;;21.90;100.00;98429.13;4824561;29;20230;-87
2022/08/15 06:23:15;;;;;;;13.17;10.47;;;;;;;22.66;100.00;98475.88;4814011;29;20431;-85
2022/08/15 06:26:20;;;;;;;12.73;10.47;;;;;;;23.32;100.00;98468.44;4813145;29;20217;-85
2022/08/15 06:28:54;;;;;;;12.27;10.30;;;;;;;23.21;100.00;98474.75;4810957;29;20201;-85
2022/08/15 06:31:31;;;;;;;12.60;9.83;;;;;;;19.48;100.00;97883.50;4816122;29;20293;-86
2022/08/15 06:34:27;;;;;;;14.03;10.20;;;;;;;23.33;100.00;98482.22;4817527;29;20221;-85
2022/08/15 06:37:06;;;;;;;13.93;9.73;;;;;;;22.17;100.00;98281.66;4819861;29;20209;-85
2022/08/15 06:40:07;;;;;;;14.20;10.07;;;;;;;21.92;100.00;98270.19;4845187;29;21263;-85
2022/08/15 06:42:39;;;;;;;13.97;9.37;;;;;;;21.78;100.00;98356.25;4831067;29;20243;-85
2022/08/15 06:45:21;;;;;;;13.30;9.00;;;;;;;20.72;100.00;98155.59;4847386;29;20208;-85
2022/08/15 06:47:53;;;;;;;12.50;9.03;;;;;;;20.39;100.00;98126.97;4835016;29;20205;-85
2022/08/15 06:50:30;;;;;;;12.53;8.83;;;;;;;22.74;100.00;98497.22;4830300;29;20230;-85
2022/08/15 06:53:10;;;;;;;12.73;9.20;;;;;;;19.23;100.00;97880.44;4842394;29;20633;-85
2022/08/15 06:55:56;;;;;;;11.23;9.00;;;;;;;19.95;100.00;98034.28;4893596;28;20310;-86
2022/08/15 06:58:35;;;;;;;10.63;8.20;;;;;;;22.35;100.00;98477.31;4981220;28;20191;-86
2022/08/15 07:01:27;;;;;;;9.87;7.53;;;;;;;20.55;100.00;98113.00;4974519;28;20187;-87
2022/08/15 07:04:15;;;;;;;10.83;8.77;;;;;;;21.59;100.00;98285.34;4975865;28;20179;-85
2022/08/15 07:06:54;;;;;;;10.87;7.93;;;;;;;19.75;100.00;97961.84;4975083;28;20645;-87
2022/08/15 07:09:19;;;;;;;10.43;7.73;;;;;;;23.12;100.00;98527.44;4975775;28;20248;-87
2022/08/15 07:12:17;;;;;;;11.33;8.93;;;;;;;22.23;100.00;98353.75;4975172;28;20183;-86
2022/08/15 07:14:54;;;;;;;10.57;8.90;;;;;;;22.91;100.00;98517.53;4976093;28;20651;-86
2022/08/15 07:17:29;;;;;;;12.43;8.57;;;;;;;19.39;100.00;97897.34;4976171;28;20171;-86
2022/08/15 07:19:57;;;;;;;11.50;8.50;;;;;;;19.09;100.00;97840.50;4975275;28;20210;-86
2022/08/15 07:22:43;;;;;;;9.73;8.67;;;;;;;20.28;100.00;97930.97;4975648;28;20202;-86
2022/08/15 07:25:14;;;;;;;11.20;9.03;;;;;;;23.73;100.00;98485.66;4976062;28;20197;-86
2022/08/15 07:28:09;;;;;;;10.83;8.80;;;;;;;20.49;100.00;97927.16;4990645;28;20176;-86
2022/08/15 07:30:44;;;;;;;10.70;8.73;;;;;;;24.30;100.00;98505.81;4959104;28;20252;-86
2022/08/15 07:33:29;;;;;;;11.00;9.00;;;;;;;22.38;100.00;98185.81;4991360;28;20178;-86
2022/08/15 07:36:12;;;;;;;12.70;8.83;;;;;;;20.46;100.00;97886.91;4981645;28;20203;-87
2022/08/15 07:38:38;;;;;;;11.03;9.13;;;;;;;24.20;100.00;98540.56;4980274;28;20179;-85
2022/08/15 07:41:23;;;;;;;11.27;8.60;;;;;;;22.50;100.00;98242.25;4981491;28;20382;-84
2022/08/15 07:43:56;;;;;;;12.70;9.10;;;;;;;22.66;100.00;98251.38;4961916;28;20187;-87
2022/08/15 07:46:34;;;;;;;11.73;8.93;;;;;;;24.50;100.00;98519.09;4985377;28;20184;-85
2022/08/15 07:49:26;;;;;;;10.77;9.27;;;;;;;22.28;100.00;98073.44;4980101;28;20182;-86
2022/08/15 07:52:06;;;;;;;11.73;9.97;;;;;;;22.98;100.00;98229.13;4976084;28;20624;-84
2022/08/15 07:54:50;;;;;;;12.17;9.47;;;;;;;25.27;100.00;98514.38;4974634;28;20254;-86
2022/08/15 07:57:28;;;;;;;12.63;9.60;;;;;;;25.54;100.00;98513.56;4975717;28;20187;-86
2022/08/15 08:00:30;;;;;;;12.53;9.60;;;;;;;23.24;100.00;98131.22;4976485;28;20270;-85
2022/08/15 08:02:58;;;;;;;10.63;9.03;;;;;;;25.10;100.00;98512.25;4919881;29;20248;-85
2022/08/15 08:05:34;;;;;;;10.13;8.37;;;;;;;24.55;100.00;98318.78;4935198;29;20208;-86
2022/08/15 08:08:05;;;;;;;13.23;9.00;;;;;;;24.56;100.00;98226.44;4951612;29;20183;-87
2022/08/15 08:10:57;;;;;;;12.80;8.95;;;;;;;23.70;100.00;98053.25;4935990;29;20308;-84
2022/08/15 08:13:44;;;;;;;10.88;9.40;;;;;;;23.89;100.00;98219.84;4939172;29;20198;-85
2022/08/15 08:16:40;;;;;;;11.73;9.30;;;;;;;22.28;100.00;97883.47;4942031;29;20282;-85
2022/08/15 08:19:25;;;;;;;13.30;9.52;;;;;;;23.57;100.00;98011.41;4914646;29;20206;-86
2022/08/15 08:22:27;;;;;;;10.68;8.88;;;;;;;26.33;70.96;98491.13;4915890;29;20190;-85
2022/08/15 08:25:29;;;;;;;;;;;;;;;;;;;;;
2022/08/15 08:28:27;;;;;;;11.30;9.55;;;;;;;26.45;73.56;98494.19;4900626;29;20278;-86
2022/08/15 08:32:02;;;;;;;12.95;10.02;;;;;;;27.30;70.33;98486.75;5025138;28;1365129;-85
2022/08/15 08:34:53;;;;;;;11.68;10.00;;;;;;;24.88;70.20;98065.81;5053958;28;20208;-85
2022/08/15 08:38:08;;;;;;;14.55;10.07;;;;;;;26.44;69.02;98326.34;4991627;28;20198;-87
2022/08/15 08:43:55;;;;;;;12.98;10.20;;;;;;;27.52;69.23;98485.06;4969973;28;20205;-85
2022/08/15 08:46:43;;;;;;;12.20;10.70;;;;;;;24.53;68.95;98048.84;4967803;28;20277;-85
2022/08/15 08:49:23;;;;;;;13.63;10.45;;;;;;;25.51;69.73;98233.72;4896014;29;20361;-85
2022/08/15 08:52:12;;;;;;;14.50;10.45;;;;;;;25.64;69.15;98239.31;4904532;29;20207;-87
2022/08/15 08:55:08;;;;;;;13.48;10.25;;;;;;;27.61;69.55;98471.66;4934492;29;20289;-86
2022/08/15 08:58:03;;;;;;;13.30;10.55;;;;;;;27.17;70.90;98481.16;4914386;29;20270;-85
2022/08/15 09:00:48;;;;;;;14.48;11.57;;;;;;;24.60;71.94;98033.97;4837530;29;20322;-85
2022/08/15 09:06:41;;;;;;;17.63;11.15;;;;;;;27.96;69.29;98476.28;4862337;29;20259;-84
2022/08/15 09:09:29;;;;;;;15.57;10.52;;;;;;;25.22;65.99;97941.94;4873165;29;20185;-83
2022/08/15 09:12:02;;;;;;;14.10;11.18;;;;;;;26.84;65.17;98129.16;4862534;29;20206;-84
2022/08/15 09:14:33;;;;;;;14.38;10.98;;;;;;;25.28;65.28;97929.63;4865159;29;20265;-84
2022/08/15 09:17:08;;;;;;;13.27;10.82;;;;;;;26.87;65.60;98204.34;4855407;29;20186;-85
2022/08/15 09:19:36;;;;;;;14.35;11.25;;;;;;;28.22;67.22;98484.81;4860220;29;20202;-84
2022/08/15 09:22:02;;;;;;;15.00;11.13;;;;;;;26.62;67.01;98169.84;4871480;29;20189;-85
2022/08/15 09:24:29;;;;;;;16.52;11.35;;;;;;;28.35;67.30;98455.59;4861019;29;20732;-84
2022/08/15 09:27:19;;;;;;;16.27;11.45;;;;;;;28.89;66.59;98488.84;4891027;28;20623;-84
2022/08/15 09:29:57;;;;;;;18.20;15.50;;;;;;;25.60;66.46;97962.97;4951831;28;20680;-83
2022/08/15 09:32:28;;;;;;;14.20;11.98;;;;;;;28.87;66.15;98489.81;4966782;28;20191;-82
2022/08/15 09:35:07;;;;;;;14.57;10.50;;;;;;;28.90;65.19;98485.31;4971106;28;20172;-84
2022/08/15 09:38:00;;;;;;;13.18;10.50;;;;;;;26.99;64.79;98211.66;5005227;28;20320;-84
2022/08/15 09:40:31;;;;;;;12.27;9.98;;;;;;;28.21;63.83;98481.34;5037747;28;20190;-85
2022/08/15 09:43:10;;;;;;;12.45;10.50;;;;;;;27.99;63.12;98343.44;5012216;28;20193;-84
2022/08/15 09:45:55;;;;;;;12.65;9.95;;;;;;;29.20;62.66;98483.06;5035380;28;20249;-84
2022/08/15 09:48:39;;;;;;;14.02;10.10;;;;;;;28.61;63.96;98483.13;5017563;28;20184;-84
2022/08/15 09:51:57;;;;;;;12.65;10.98;;;;;;;28.68;63.77;98479.34;4988997;28;20237;-84
2022/08/15 09:54:25;;;;;;;14.00;10.88;;;;;;;28.76;62.68;98430.34;4893376;29;20226;-83
2022/08/15 09:57:16;;;;;;;13.38;10.40;;;;;;;28.94;63.88;98478.19;4898957;29;20301;-82
2022/08/15 09:59:42;;;;;;;13.45;10.05;;;;;;;29.49;60.67;98490.44;4899230;29;20204;-83
2022/08/15 10:02:21;;;;;;;12.60;11.00;;;;;;;28.55;58.46;98301.91;4897716;29;20802;-84
2022/08/15 10:04:49;;;;;;;13.10;10.45;;;;;;;29.11;60.09;98481.75;4891558;29;20293;-83
2022/08/15 10:07:15;;;;;;;12.48;10.63;;;;;;;28.45;59.74;98484.69;4915708;29;20198;-83
2022/08/15 10:10:00;;;;;;;14.25;11.35;;;;;;;29.04;60.38;98488.13;4914950;29;20210;-83
2022/08/15 10:12:27;;;;;;;13.57;11.38;;;;;;;27.81;60.23;98344.25;4848216;29;20223;-83
2022/08/15 10:14:52;;;;;;;13.85;10.77;;;;;;;28.15;61.45;98472.97;4847768;29;20214;-84
2022/08/15 10:17:27;;;;;;;13.95;11.25;;;;;;;28.70;61.19;98476.69;4840623;29;20579;-84
2022/08/15 10:19:56;;;;;;;15.82;12.32;;;;;;;29.20;59.17;98449.16;4830333;29;20165;-82
2022/08/15 10:22:22;;;;;;;13.82;11.32;;;;;;;29.22;57.69;98470.84;4870217;29;20191;-83
2022/08/15 10:25:20;;;;;;;14.52;11.10;;;;;;;28.85;59.79;98471.63;4859006;29;20200;-83
2022/08/15 10:28:05;;;;;;;13.70;11.93;;;;;;;28.06;61.06;98484.63;4868839;29;20178;-83
2022/08/15 10:30:37;;;;;;;14.02;12.20;;;;;;;28.46;61.19;98478.56;4877578;29;20676;-83
2022/08/15 10:33:27;;;;;;;15.00;12.45;;;;;;;28.38;60.98;98486.69;4896045;29;20263;-83
2022/08/15 10:36:02;;;;;;;15.95;12.70;;;;;;;27.15;60.45;98254.28;4858354;29;20290;-83
2022/08/15 10:38:29;;;;;;;15.20;12.48;;;;;;;27.03;59.53;98189.00;4863167;29;20324;-83
2022/08/15 10:41:03;;;;;;;15.77;13.00;;;;;;;28.36;60.33;98472.91;4857277;29;20216;-83
2022/08/15 10:43:32;;;;;;;15.90;12.52;;;;;;;29.13;59.29;98479.91;4841812;29;20203;-84
2022/08/15 10:46:17;;;;;;;14.88;12.85;;;;;;;28.52;59.10;98359.34;4862975;29;20642;-83
2022/08/15 10:49:04;;;;;;;15.65;11.85;;;;;;;29.76;57.93;98463.00;4864078;29;20202;-83
2022/08/15 10:51:51;;;;;;;14.48;12.02;;;;;;;29.78;58.30;98466.38;4894435;29;20656;-83
2022/08/15 10:54:27;;;;;;;15.32;11.60;;;;;;;28.96;57.00;98346.06;4893937;29;20237;-84
2022/08/15 10:56:55;;;;;;;13.20;11.57;;;;;;;29.40;55.84;98357.84;4877803;29;20303;-84
2022/08/15 10:59:27;;;;;;;14.48;11.73;;;;;;;28.54;56.17;98219.47;4894576;29;20315;-82
2022/08/15 11:02:31;;;;;;;12.40;10.52;;;;;;;30.31;55.17;98470.72;4890611;29;20190;-83
2022/08/15 11:05:05;;;;;;;11.82;9.20;;;;;;;28.88;53.85;98286.47;4884523;29;20204;-84
2022/08/15 11:07:34;;;;;;;26.83;19.58;;;;;;;30.16;54.80;98474.13;4874490;29;20210;-83
2022/08/15 11:10:08;;;;;;;28.75;21.35;;;;;;;30.06;55.31;98465.06;4895378;29;20321;-83
2022/08/15 11:12:36;;;;;;;10.60;8.70;;;;;;;28.63;54.95;98302.44;4896449;29;20225;-83
2022/08/15 11:15:14;;;;;;;10.07;8.70;;;;;;;29.06;54.20;98462.84;4910902;29;20198;-82
2022/08/15 11:17:45;;;;;;;10.60;8.80;;;;;;;27.61;55.37;98234.19;4921359;29;20170;-83
2022/08/15 11:20:17;;;;;;;12.45;9.73;;;;;;;28.84;55.88;98385.72;4902230;29;20193;-83
2022/08/15 11:22:58;;;;;;;10.90;9.40;;;;;;;29.41;56.34;98456.03;4896016;29;20435;-84
2022/08/15 11:25:30;;;;;;;13.00;9.50;;;;;;;29.39;54.56;98452.66;4895367;29;20177;-83
2022/08/15 11:28:07;;;;;;;15.95;12.00;;;;;;;29.83;53.51;98441.88;4894977;29;20256;-83
2022/08/15 11:30:37;;;;;;;11.10;9.80;;;;;;;27.88;54.81;98179.16;4894873;29;20234;-83
2022/08/15 11:33:43;;;;;;;10.93;9.70;;;;;;;29.49;55.48;98433.03;4894476;29;20182;-83
2022/08/15 11:36:18;;;;;;;13.55;11.40;;;;;;;29.58;54.63;98436.97;4894818;29;20233;-83
2022/08/15 11:38:56;;;;;;;11.23;9.38;;;;;;;30.73;51.50;98439.81;4894594;29;20194;-83
2022/08/15 11:41:29;;;;;;;11.23;9.95;;;;;;;30.93;50.07;98408.22;4916644;29;20200;-82
2022/08/15 11:43:59;;;;;;;11.35;9.60;;;;;;;29.56;50.80;98251.81;4932079;29;20212;-83
2022/08/15 11:46:26;;;;;;;10.30;9.07;;;;;;;29.72;50.57;98336.19;4932435;29;20198;-83
2022/08/15 11:49:03;;;;;;;13.50;12.00;;;;;;;31.32;49.54;98399.94;4946853;29;20184;-82
2022/08/15 11:51:35;;;;;;;13.20;9.65;;;;;;;30.13;48.12;98179.25;4916166;29;20216;-82
2022/08/15 11:54:06;;;;;;;10.38;9.27;;;;;;;31.29;48.43;98436.75;4931847;29;20855;-86
2022/08/15 11:56:57;;;;;;;11.75;10.55;;;;;;;30.56;47.44;98204.69;4932687;29;20212;-84
2022/08/15 11:59:28;;;;;;;13.00;9.60;;;;;;;31.80;47.72;98414.69;4939762;29;20201;-84
2022/08/15 12:02:28;;;;;;;10.93;9.82;;;;;;;31.55;48.37;98406.53;4948600;29;20184;-84